sensor_id;sensor_type;location;lat;lon;timestamp;temperature;humidity
69492;DHT22;56692;52.016;4.356;2023-03-30T00:00:39;16.60;55.10
69492;DHT22;56692;52.016;4.356;2023-03-30T00:03:08;16.60;55.10
69492;DHT22;56692;52.016;4.356;2023-03-30T00:05:34;16.60;55.10
69492;DHT22;56692;52.016;4.356;2023-03-30T00:08:01;16.60;55.20
69492;DHT22;56692;52.016;4.356;2023-03-30T00:10:27;16.60;55.20
69492;DHT22;56692;52.016;4.356;2023-03-30T00:12:55;16.60;55.20
69492;DHT22;56692;52.016;4.356;2023-03-30T00:15:22;16.60;55.10
69492;DHT22;56692;52.016;4.356;2023-03-30T00:17:50;16.60;55.20
69492;DHT22;56692;52.016;4.356;2023-03-30T00:20:20;16.60;55.10
69492;DHT22;56692;52.016;4.356;2023-03-30T00:22:46;16.60;55.10
69492;DHT22;56692;52.016;4.356;2023-03-30T00:25:15;16.60;55.20
69492;DHT22;56692;52.016;4.356;2023-03-30T00:27:41;16.60;55.10
69492;DHT22;56692;52.016;4.356;2023-03-30T00:30:11;16.60;55.00
69492;DHT22;56692;52.016;4.356;2023-03-30T00:32:37;16.60;55.00
69492;DHT22;56692;52.016;4.356;2023-03-30T00:35:05;16.60;55.10
69492;DHT22;56692;52.016;4.356;2023-03-30T00:37:31;16.60;55.10
69492;DHT22;56692;52.016;4.356;2023-03-30T00:39:57;16.50;55.10
69492;DHT22;56692;52.016;4.356;2023-03-30T00:42:23;16.60;55.10
69492;DHT22;56692;52.016;4.356;2023-03-30T00:45:28;16.50;55.10
69492;DHT22;56692;52.016;4.356;2023-03-30T00:48:04;16.50;55.10
69492;DHT22;56692;52.016;4.356;2023-03-30T00:50:38;16.50;55.10
69492;DHT22;56692;52.016;4.356;2023-03-30T00:53:09;16.50;55.10
69492;DHT22;56692;52.016;4.356;2023-03-30T00:55:38;16.50;55.10
69492;DHT22;56692;52.016;4.356;2023-03-30T00:58:06;16.50;55.20
69492;DHT22;56692;52.016;4.356;2023-03-30T01:00:34;16.50;55.10
69492;DHT22;56692;52.016;4.356;2023-03-30T01:03:09;16.50;55.20
69492;DHT22;56692;52.016;4.356;2023-03-30T01:05:38;16.50;55.30
69492;DHT22;56692;52.016;4.356;2023-03-30T01:08:08;16.50;55.30
69492;DHT22;56692;52.016;4.356;2023-03-30T01:10:34;16.50;55.30
69492;DHT22;56692;52.016;4.356;2023-03-30T01:13:00;16.50;55.30
69492;DHT22;56692;52.016;4.356;2023-03-30T01:15:28;16.50;55.40
69492;DHT22;56692;52.016;4.356;2023-03-30T01:21:00;16.50;55.40
69492;DHT22;56692;52.016;4.356;2023-03-30T01:23:52;16.50;55.40
69492;DHT22;56692;52.016;4.356;2023-03-30T01:32:40;16.50;55.60
69492;DHT22;56692;52.016;4.356;2023-03-30T01:35:13;16.50;55.70
69492;DHT22;56692;52.016;4.356;2023-03-30T01:43:17;16.50;55.90
69492;DHT22;56692;52.016;4.356;2023-03-30T01:45:51;16.50;55.90
69492;DHT22;56692;52.016;4.356;2023-03-30T01:48:28;16.40;55.90
69492;DHT22;56692;52.016;4.356;2023-03-30T01:51:05;16.40;55.90
69492;DHT22;56692;52.016;4.356;2023-03-30T01:56:55;16.40;56.00
69492;DHT22;56692;52.016;4.356;2023-03-30T01:59:28;16.40;56.10
69492;DHT22;56692;52.016;4.356;2023-03-30T02:01:58;16.40;56.10
69492;DHT22;56692;52.016;4.356;2023-03-30T02:04:29;16.40;56.10
69492;DHT22;56692;52.016;4.356;2023-03-30T02:07:13;16.40;56.20
69492;DHT22;56692;52.016;4.356;2023-03-30T02:09:41;16.40;56.30
69492;DHT22;56692;52.016;4.356;2023-03-30T02:12:09;16.40;56.30
69492;DHT22;56692;52.016;4.356;2023-03-30T02:14:37;16.40;56.30
69492;DHT22;56692;52.016;4.356;2023-03-30T02:17:19;16.40;56.40
69492;DHT22;56692;52.016;4.356;2023-03-30T02:19:48;16.40;56.40
69492;DHT22;56692;52.016;4.356;2023-03-30T02:22:15;16.40;56.40
69492;DHT22;56692;52.016;4.356;2023-03-30T02:24:44;16.40;56.50
69492;DHT22;56692;52.016;4.356;2023-03-30T02:27:10;16.40;56.60
69492;DHT22;56692;52.016;4.356;2023-03-30T02:29:40;16.40;56.50
69492;DHT22;56692;52.016;4.356;2023-03-30T02:32:17;16.40;56.50
69492;DHT22;56692;52.016;4.356;2023-03-30T02:43:44;16.40;56.80
69492;DHT22;56692;52.016;4.356;2023-03-30T02:57:31;16.30;56.90
69492;DHT22;56692;52.016;4.356;2023-03-30T03:02:37;16.30;56.90
69492;DHT22;56692;52.016;4.356;2023-03-30T03:05:06;16.30;56.90
69492;DHT22;56692;52.016;4.356;2023-03-30T03:07:33;16.30;57.10
69492;DHT22;56692;52.016;4.356;2023-03-30T03:09:59;16.30;57.10
69492;DHT22;56692;52.016;4.356;2023-03-30T03:12:25;16.30;57.20
69492;DHT22;56692;52.016;4.356;2023-03-30T03:14:53;16.30;57.20
69492;DHT22;56692;52.016;4.356;2023-03-30T03:17:19;16.30;57.20
69492;DHT22;56692;52.016;4.356;2023-03-30T03:19:50;16.30;57.20
69492;DHT22;56692;52.016;4.356;2023-03-30T03:22:16;16.30;57.10
69492;DHT22;56692;52.016;4.356;2023-03-30T03:24:41;16.30;57.10
69492;DHT22;56692;52.016;4.356;2023-03-30T03:27:10;16.30;57.10
69492;DHT22;56692;52.016;4.356;2023-03-30T03:29:36;16.30;57.10
69492;DHT22;56692;52.016;4.356;2023-03-30T03:32:02;16.30;57.10
69492;DHT22;56692;52.016;4.356;2023-03-30T03:34:27;16.30;57.20
69492;DHT22;56692;52.016;4.356;2023-03-30T03:36:57;16.30;57.20
69492;DHT22;56692;52.016;4.356;2023-03-30T03:39:23;16.30;57.10
69492;DHT22;56692;52.016;4.356;2023-03-30T03:41:48;16.30;57.10
69492;DHT22;56692;52.016;4.356;2023-03-30T03:44:14;16.30;57.20
69492;DHT22;56692;52.016;4.356;2023-03-30T03:46:40;16.30;57.20
69492;DHT22;56692;52.016;4.356;2023-03-30T03:49:07;16.30;57.20
69492;DHT22;56692;52.016;4.356;2023-03-30T03:51:33;16.30;57.20
69492;DHT22;56692;52.016;4.356;2023-03-30T03:54:00;16.30;57.30
69492;DHT22;56692;52.016;4.356;2023-03-30T03:56:27;16.30;57.30
69492;DHT22;56692;52.016;4.356;2023-03-30T03:58:52;16.30;57.30
69492;DHT22;56692;52.016;4.356;2023-03-30T04:01:18;16.30;57.20
69492;DHT22;56692;52.016;4.356;2023-03-30T04:03:44;16.30;57.30
69492;DHT22;56692;52.016;4.356;2023-03-30T04:06:10;16.30;57.40
69492;DHT22;56692;52.016;4.356;2023-03-30T04:08:36;16.30;57.20
69492;DHT22;56692;52.016;4.356;2023-03-30T04:11:06;16.30;57.30
69492;DHT22;56692;52.016;4.356;2023-03-30T04:13:33;16.30;57.30
69492;DHT22;56692;52.016;4.356;2023-03-30T04:16:00;16.30;57.50
69492;DHT22;56692;52.016;4.356;2023-03-30T04:18:26;16.30;57.50
69492;DHT22;56692;52.016;4.356;2023-03-30T04:20:56;16.30;57.50
69492;DHT22;56692;52.016;4.356;2023-03-30T04:23:25;16.30;57.60
69492;DHT22;56692;52.016;4.356;2023-03-30T04:25:59;16.30;57.70
69492;DHT22;56692;52.016;4.356;2023-03-30T04:28:27;16.30;57.60
69492;DHT22;56692;52.016;4.356;2023-03-30T04:31:04;16.30;57.70
69492;DHT22;56692;52.016;4.356;2023-03-30T04:33:30;16.30;57.70
69492;DHT22;56692;52.016;4.356;2023-03-30T04:36:00;16.30;57.80
69492;DHT22;56692;52.016;4.356;2023-03-30T04:38:25;16.30;57.80
69492;DHT22;56692;52.016;4.356;2023-03-30T04:40:53;16.30;57.80
69492;DHT22;56692;52.016;4.356;2023-03-30T04:43:20;16.30;57.80
69492;DHT22;56692;52.016;4.356;2023-03-30T04:45:48;16.30;57.70
69492;DHT22;56692;52.016;4.356;2023-03-30T04:48:15;16.30;57.70
69492;DHT22;56692;52.016;4.356;2023-03-30T04:50:41;16.30;57.70
69492;DHT22;56692;52.016;4.356;2023-03-30T04:53:08;16.30;57.70
69492;DHT22;56692;52.016;4.356;2023-03-30T04:55:34;16.30;57.60
69492;DHT22;56692;52.016;4.356;2023-03-30T04:58:00;16.30;57.60
69492;DHT22;56692;52.016;4.356;2023-03-30T05:00:25;16.30;57.60
69492;DHT22;56692;52.016;4.356;2023-03-30T05:02:52;16.20;57.60
69492;DHT22;56692;52.016;4.356;2023-03-30T05:05:17;16.20;57.50
69492;DHT22;56692;52.016;4.356;2023-03-30T05:07:44;16.20;57.50
69492;DHT22;56692;52.016;4.356;2023-03-30T05:10:10;16.20;57.50
69492;DHT22;56692;52.016;4.356;2023-03-30T05:12:36;16.20;57.50
69492;DHT22;56692;52.016;4.356;2023-03-30T05:15:02;16.20;57.40
69492;DHT22;56692;52.016;4.356;2023-03-30T05:17:32;16.20;57.50
69492;DHT22;56692;52.016;4.356;2023-03-30T05:19:58;16.20;57.50
69492;DHT22;56692;52.016;4.356;2023-03-30T05:22:24;16.20;57.60
69492;DHT22;56692;52.016;4.356;2023-03-30T05:24:50;16.20;57.40
69492;DHT22;56692;52.016;4.356;2023-03-30T05:27:18;16.20;57.30
69492;DHT22;56692;52.016;4.356;2023-03-30T05:29:44;16.30;57.30
69492;DHT22;56692;52.016;4.356;2023-03-30T05:32:10;16.30;57.30
69492;DHT22;56692;52.016;4.356;2023-03-30T05:34:35;16.30;57.00
69492;DHT22;56692;52.016;4.356;2023-03-30T05:37:01;16.30;57.10
69492;DHT22;56692;52.016;4.356;2023-03-30T05:39:46;16.30;57.20
69492;DHT22;56692;52.016;4.356;2023-03-30T05:42:12;16.30;57.30
69492;DHT22;56692;52.016;4.356;2023-03-30T05:44:38;16.30;57.10
69492;DHT22;56692;52.016;4.356;2023-03-30T05:47:04;16.40;57.10
69492;DHT22;56692;52.016;4.356;2023-03-30T05:49:29;16.40;57.10
69492;DHT22;56692;52.016;4.356;2023-03-30T05:51:56;16.40;57.20
69492;DHT22;56692;52.016;4.356;2023-03-30T05:54:21;16.60;57.20
69492;DHT22;56692;52.016;4.356;2023-03-30T05:56:47;16.60;57.30
69492;DHT22;56692;52.016;4.356;2023-03-30T05:59:13;16.80;57.20
69492;DHT22;56692;52.016;4.356;2023-03-30T06:01:39;16.90;57.00
69492;DHT22;56692;52.016;4.356;2023-03-30T06:04:05;17.00;56.90
69492;DHT22;56692;52.016;4.356;2023-03-30T06:06:32;17.00;56.90
69492;DHT22;56692;52.016;4.356;2023-03-30T06:08:58;17.10;56.70
69492;DHT22;56692;52.016;4.356;2023-03-30T06:11:24;17.10;56.80
69492;DHT22;56692;52.016;4.356;2023-03-30T06:13:50;17.20;56.90
69492;DHT22;56692;52.016;4.356;2023-03-30T06:16:15;17.30;56.70
69492;DHT22;56692;52.016;4.356;2023-03-30T06:18:41;17.30;56.70
69492;DHT22;56692;52.016;4.356;2023-03-30T06:21:07;17.40;56.80
69492;DHT22;56692;52.016;4.356;2023-03-30T06:23:34;17.50;56.60
69492;DHT22;56692;52.016;4.356;2023-03-30T06:26:01;17.70;56.50
69492;DHT22;56692;52.016;4.356;2023-03-30T06:28:27;17.80;55.80
69492;DHT22;56692;52.016;4.356;2023-03-30T06:30:53;17.70;56.00
69492;DHT22;56692;52.016;4.356;2023-03-30T06:33:19;17.50;56.40
69492;DHT22;56692;52.016;4.356;2023-03-30T06:35:49;17.40;56.50
69492;DHT22;56692;52.016;4.356;2023-03-30T06:38:16;17.40;56.60
69492;DHT22;56692;52.016;4.356;2023-03-30T06:40:42;17.30;56.70
69492;DHT22;56692;52.016;4.356;2023-03-30T06:43:14;17.30;57.00
69492;DHT22;56692;52.016;4.356;2023-03-30T06:45:40;17.30;57.10
69492;DHT22;56692;52.016;4.356;2023-03-30T06:48:06;17.30;57.10
69492;DHT22;56692;52.016;4.356;2023-03-30T06:50:35;17.30;57.40
69492;DHT22;56692;52.016;4.356;2023-03-30T06:53:01;17.30;57.50
69492;DHT22;56692;52.016;4.356;2023-03-30T06:55:27;17.30;57.40
69492;DHT22;56692;52.016;4.356;2023-03-30T06:57:53;17.30;57.30
69492;DHT22;56692;52.016;4.356;2023-03-30T07:00:19;17.30;57.30
69492;DHT22;56692;52.016;4.356;2023-03-30T07:02:45;17.30;57.50
69492;DHT22;56692;52.016;4.356;2023-03-30T07:05:11;17.30;57.40
69492;DHT22;56692;52.016;4.356;2023-03-30T07:07:40;17.30;57.50
69492;DHT22;56692;52.016;4.356;2023-03-30T07:10:06;17.30;57.50
69492;DHT22;56692;52.016;4.356;2023-03-30T07:12:36;17.30;57.40
69492;DHT22;56692;52.016;4.356;2023-03-30T07:15:03;17.40;57.60
69492;DHT22;56692;52.016;4.356;2023-03-30T07:17:29;17.50;57.70
69492;DHT22;56692;52.016;4.356;2023-03-30T07:19:55;17.60;57.50
69492;DHT22;56692;52.016;4.356;2023-03-30T07:22:21;17.70;57.40
69492;DHT22;56692;52.016;4.356;2023-03-30T07:24:48;17.70;57.30
69492;DHT22;56692;52.016;4.356;2023-03-30T07:27:14;17.80;57.20
69492;DHT22;56692;52.016;4.356;2023-03-30T07:29:41;17.80;57.20
69492;DHT22;56692;52.016;4.356;2023-03-30T07:32:06;18.00;56.90
69492;DHT22;56692;52.016;4.356;2023-03-30T07:34:32;18.20;56.40
69492;DHT22;56692;52.016;4.356;2023-03-30T07:36:58;18.10;56.50
69492;DHT22;56692;52.016;4.356;2023-03-30T07:39:24;18.00;56.80
69492;DHT22;56692;52.016;4.356;2023-03-30T07:41:50;17.90;57.20
69492;DHT22;56692;52.016;4.356;2023-03-30T07:44:15;17.80;57.00
69492;DHT22;56692;52.016;4.356;2023-03-30T07:46:41;17.80;57.00
69492;DHT22;56692;52.016;4.356;2023-03-30T07:49:06;17.70;57.00
69492;DHT22;56692;52.016;4.356;2023-03-30T07:51:32;17.70;57.10
69492;DHT22;56692;52.016;4.356;2023-03-30T07:53:59;17.70;57.10
69492;DHT22;56692;52.016;4.356;2023-03-30T07:56:24;17.70;57.10
69492;DHT22;56692;52.016;4.356;2023-03-30T07:58:50;17.70;57.30
69492;DHT22;56692;52.016;4.356;2023-03-30T08:01:16;17.70;57.30
69492;DHT22;56692;52.016;4.356;2023-03-30T08:03:42;17.70;57.30
69492;DHT22;56692;52.016;4.356;2023-03-30T08:06:10;17.70;57.40
69492;DHT22;56692;52.016;4.356;2023-03-30T08:08:36;17.70;57.40
69492;DHT22;56692;52.016;4.356;2023-03-30T08:11:05;17.70;57.30
69492;DHT22;56692;52.016;4.356;2023-03-30T08:13:32;17.70;57.40
69492;DHT22;56692;52.016;4.356;2023-03-30T08:15:58;17.70;57.40
69492;DHT22;56692;52.016;4.356;2023-03-30T08:18:25;17.70;57.50
69492;DHT22;56692;52.016;4.356;2023-03-30T08:20:52;17.70;57.40
69492;DHT22;56692;52.016;4.356;2023-03-30T08:23:20;17.80;57.60
69492;DHT22;56692;52.016;4.356;2023-03-30T08:25:47;17.90;57.70
69492;DHT22;56692;52.016;4.356;2023-03-30T08:28:17;18.00;57.60
69492;DHT22;56692;52.016;4.356;2023-03-30T08:30:43;18.00;57.50
69492;DHT22;56692;52.016;4.356;2023-03-30T08:33:09;18.10;57.30
69492;DHT22;56692;52.016;4.356;2023-03-30T08:35:35;18.20;57.20
69492;DHT22;56692;52.016;4.356;2023-03-30T08:38:00;18.40;56.60
69492;DHT22;56692;52.016;4.356;2023-03-30T08:40:26;18.70;56.00
69492;DHT22;56692;52.016;4.356;2023-03-30T08:45:45;18.50;56.20
69492;DHT22;56692;52.016;4.356;2023-03-30T08:48:17;18.30;56.80
69492;DHT22;56692;52.016;4.356;2023-03-30T08:50:56;18.20;57.00
69492;DHT22;56692;52.016;4.356;2023-03-30T08:53:23;18.10;57.00
69492;DHT22;56692;52.016;4.356;2023-03-30T08:55:53;18.10;57.10
69492;DHT22;56692;52.016;4.356;2023-03-30T09:01:04;18.00;57.30
69492;DHT22;56692;52.016;4.356;2023-03-30T09:03:40;18.00;57.40
69492;DHT22;56692;52.016;4.356;2023-03-30T09:08:55;18.00;57.40
69492;DHT22;56692;52.016;4.356;2023-03-30T09:11:32;17.90;57.50
69492;DHT22;56692;52.016;4.356;2023-03-30T09:14:03;17.90;57.60
69492;DHT22;56692;52.016;4.356;2023-03-30T09:16:34;17.90;57.60
69492;DHT22;56692;52.016;4.356;2023-03-30T09:19:11;17.90;57.50
69492;DHT22;56692;52.016;4.356;2023-03-30T09:21:39;17.90;57.60
69492;DHT22;56692;52.016;4.356;2023-03-30T09:24:12;17.90;57.70
69492;DHT22;56692;52.016;4.356;2023-03-30T09:29:46;18.00;57.40
69492;DHT22;56692;52.016;4.356;2023-03-30T09:32:23;18.10;57.40
69492;DHT22;56692;52.016;4.356;2023-03-30T09:34:55;18.20;57.30
69492;DHT22;56692;52.016;4.356;2023-03-30T09:37:23;18.20;57.20
69492;DHT22;56692;52.016;4.356;2023-03-30T09:39:49;18.30;57.00
69492;DHT22;56692;52.016;4.356;2023-03-30T09:45:27;18.50;56.60
69492;DHT22;56692;52.016;4.356;2023-03-30T09:47:55;18.70;56.10
69492;DHT22;56692;52.016;4.356;2023-03-30T09:50:27;18.50;56.20
69492;DHT22;56692;52.016;4.356;2023-03-30T09:53:09;18.40;56.70
69492;DHT22;56692;52.016;4.356;2023-03-30T09:55:57;18.30;57.00
69492;DHT22;56692;52.016;4.356;2023-03-30T09:58:32;18.30;57.30
69492;DHT22;56692;52.016;4.356;2023-03-30T10:01:14;18.20;57.30
69492;DHT22;56692;52.016;4.356;2023-03-30T10:03:41;18.20;57.30
69492;DHT22;56692;52.016;4.356;2023-03-30T10:06:18;18.20;57.40
69492;DHT22;56692;52.016;4.356;2023-03-30T10:08:52;18.20;57.40
69492;DHT22;56692;52.016;4.356;2023-03-30T10:13:56;18.10;57.60
69492;DHT22;56692;52.016;4.356;2023-03-30T10:16:27;18.10;57.40
69492;DHT22;56692;52.016;4.356;2023-03-30T10:19:17;18.10;57.40
69492;DHT22;56692;52.016;4.356;2023-03-30T10:21:44;18.10;57.40
69492;DHT22;56692;52.016;4.356;2023-03-30T10:26:39;18.10;57.70
69492;DHT22;56692;52.016;4.356;2023-03-30T10:29:12;18.10;57.80
69492;DHT22;56692;52.016;4.356;2023-03-30T10:31:41;18.10;57.60
69492;DHT22;56692;52.016;4.356;2023-03-30T10:34:31;18.20;57.80
69492;DHT22;56692;52.016;4.356;2023-03-30T10:37:00;18.40;57.40
69492;DHT22;56692;52.016;4.356;2023-03-30T10:39:29;18.50;56.90
69492;DHT22;56692;52.016;4.356;2023-03-30T10:41:58;18.50;56.80
69492;DHT22;56692;52.016;4.356;2023-03-30T10:44:40;18.60;56.90
69492;DHT22;56692;52.016;4.356;2023-03-30T10:55:24;18.70;56.30
69492;DHT22;56692;52.016;4.356;2023-03-30T10:58:09;18.60;56.60
69492;DHT22;56692;52.016;4.356;2023-03-30T11:03:24;18.40;57.20
69492;DHT22;56692;52.016;4.356;2023-03-30T11:06:08;18.40;57.30
69492;DHT22;56692;52.016;4.356;2023-03-30T11:08:40;18.40;57.30
69492;DHT22;56692;52.016;4.356;2023-03-30T11:11:22;18.40;57.50
69492;DHT22;56692;52.016;4.356;2023-03-30T11:13:52;18.30;57.40
69492;DHT22;56692;52.016;4.356;2023-03-30T11:16:24;18.30;57.40
69492;DHT22;56692;52.016;4.356;2023-03-30T11:19:17;18.30;57.30
69492;DHT22;56692;52.016;4.356;2023-03-30T11:22:20;18.30;57.40
69492;DHT22;56692;52.016;4.356;2023-03-30T11:24:38;18.30;57.40
69492;DHT22;56692;52.016;4.356;2023-03-30T11:27:17;18.30;57.40
69492;DHT22;56692;52.016;4.356;2023-03-30T11:29:53;18.30;57.50
69492;DHT22;56692;52.016;4.356;2023-03-30T11:32:45;18.20;57.60
69492;DHT22;56692;52.016;4.356;2023-03-30T11:38:05;18.20;57.60
69492;DHT22;56692;52.016;4.356;2023-03-30T11:43:15;18.60;57.20
69492;DHT22;56692;52.016;4.356;2023-03-30T11:45:48;18.60;57.10
69492;DHT22;56692;52.016;4.356;2023-03-30T11:53:50;18.70;57.00
69492;DHT22;56692;52.016;4.356;2023-03-30T11:56:42;18.80;56.70
69492;DHT22;56692;52.016;4.356;2023-03-30T12:07:39;18.70;56.60
69492;DHT22;56692;52.016;4.356;2023-03-30T12:10:22;18.60;57.00
69492;DHT22;56692;52.016;4.356;2023-03-30T12:12:49;18.50;57.10
69492;DHT22;56692;52.016;4.356;2023-03-30T12:15:36;18.50;57.10
69492;DHT22;56692;52.016;4.356;2023-03-30T12:21:19;18.40;57.20
69492;DHT22;56692;52.016;4.356;2023-03-30T12:26:35;18.40;57.50
69492;DHT22;56692;52.016;4.356;2023-03-30T12:34:22;18.30;57.50
69492;DHT22;56692;52.016;4.356;2023-03-30T12:39:53;18.30;57.50
69492;DHT22;56692;52.016;4.356;2023-03-30T12:42:26;18.30;57.60
69492;DHT22;56692;52.016;4.356;2023-03-30T12:45:29;18.30;57.60
69492;DHT22;56692;52.016;4.356;2023-03-30T12:48:05;18.30;57.60
69492;DHT22;56692;52.016;4.356;2023-03-30T13:04:56;18.80;57.00
69492;DHT22;56692;52.016;4.356;2023-03-30T13:07:26;18.90;56.90
69492;DHT22;56692;52.016;4.356;2023-03-30T13:09:58;19.00;56.50
69492;DHT22;56692;52.016;4.356;2023-03-30T13:12:51;19.00;56.50
69492;DHT22;56692;52.016;4.356;2023-03-30T13:15:45;18.90;56.60
69492;DHT22;56692;52.016;4.356;2023-03-30T13:33:50;18.70;57.40
69492;DHT22;56692;52.016;4.356;2023-03-30T13:36:21;18.70;57.50
69492;DHT22;56692;52.016;4.356;2023-03-30T13:39:15;18.70;57.60
69492;DHT22;56692;52.016;4.356;2023-03-30T13:42:38;18.70;57.50
69492;DHT22;56692;52.016;4.356;2023-03-30T13:50:22;18.70;57.60
69492;DHT22;56692;52.016;4.356;2023-03-30T13:52:50;18.70;57.30
69492;DHT22;56692;52.016;4.356;2023-03-30T13:55:41;18.80;57.40
69492;DHT22;56692;52.016;4.356;2023-03-30T13:58:29;18.80;57.50
69492;DHT22;56692;52.016;4.356;2023-03-30T14:01:04;19.00;57.10
69492;DHT22;56692;52.016;4.356;2023-03-30T14:03:46;19.00;57.00
69492;DHT22;56692;52.016;4.356;2023-03-30T14:06:21;19.00;57.00
69492;DHT22;56692;52.016;4.356;2023-03-30T14:08:49;19.10;56.80
69492;DHT22;56692;52.016;4.356;2023-03-30T14:11:26;19.20;56.70
69492;DHT22;56692;52.016;4.356;2023-03-30T14:13:56;19.10;56.80
69492;DHT22;56692;52.016;4.356;2023-03-30T14:16:24;19.10;56.80
69492;DHT22;56692;52.016;4.356;2023-03-30T14:18:51;19.10;57.00
69492;DHT22;56692;52.016;4.356;2023-03-30T14:21:21;19.10;57.00
69492;DHT22;56692;52.016;4.356;2023-03-30T14:23:52;19.00;57.20
69492;DHT22;56692;52.016;4.356;2023-03-30T14:26:25;19.00;57.40
69492;DHT22;56692;52.016;4.356;2023-03-30T14:29:01;19.00;57.30
69492;DHT22;56692;52.016;4.356;2023-03-30T14:31:37;19.00;57.30
69492;DHT22;56692;52.016;4.356;2023-03-30T14:34:27;19.00;57.40
69492;DHT22;56692;52.016;4.356;2023-03-30T14:36:54;19.10;57.40
69492;DHT22;56692;52.016;4.356;2023-03-30T14:39:23;19.10;57.30
69492;DHT22;56692;52.016;4.356;2023-03-30T14:41:50;19.10;57.40
69492;DHT22;56692;52.016;4.356;2023-03-30T14:44:18;19.10;57.50
69492;DHT22;56692;52.016;4.356;2023-03-30T14:46:47;19.10;57.50
69492;DHT22;56692;52.016;4.356;2023-03-30T14:49:24;19.10;57.40
69492;DHT22;56692;52.016;4.356;2023-03-30T14:51:58;19.10;57.40
69492;DHT22;56692;52.016;4.356;2023-03-30T14:54:25;19.10;57.40
69492;DHT22;56692;52.016;4.356;2023-03-30T14:57:00;19.10;57.40
69492;DHT22;56692;52.016;4.356;2023-03-30T14:59:26;19.10;57.20
69492;DHT22;56692;52.016;4.356;2023-03-30T15:01:53;19.30;56.90
69492;DHT22;56692;52.016;4.356;2023-03-30T15:04:23;19.30;56.90
69492;DHT22;56692;52.016;4.356;2023-03-30T15:06:51;19.30;56.80
69492;DHT22;56692;52.016;4.356;2023-03-30T15:09:20;19.30;56.80
69492;DHT22;56692;52.016;4.356;2023-03-30T15:14:20;19.40;56.60
69492;DHT22;56692;52.016;4.356;2023-03-30T15:16:49;19.50;56.50
69492;DHT22;56692;52.016;4.356;2023-03-30T15:19:29;19.50;56.40
69492;DHT22;56692;52.016;4.356;2023-03-30T15:21:58;19.50;56.30
69492;DHT22;56692;52.016;4.356;2023-03-30T15:24:29;19.40;56.30
69492;DHT22;56692;52.016;4.356;2023-03-30T15:26:58;19.30;56.50
69492;DHT22;56692;52.016;4.356;2023-03-30T15:29:25;19.30;56.70
69492;DHT22;56692;52.016;4.356;2023-03-30T15:32:31;19.20;56.90
69492;DHT22;56692;52.016;4.356;2023-03-30T15:38:47;19.10;57.00
69492;DHT22;56692;52.016;4.356;2023-03-30T15:40:48;19.10;57.10
69492;DHT22;56692;52.016;4.356;2023-03-30T15:43:18;19.10;57.20
69492;DHT22;56692;52.016;4.356;2023-03-30T15:48:21;19.00;57.80
69492;DHT22;56692;52.016;4.356;2023-03-30T15:50:54;19.10;57.80
69492;DHT22;56692;52.016;4.356;2023-03-30T15:53:41;19.00;57.60
69492;DHT22;56692;52.016;4.356;2023-03-30T15:56:17;19.00;58.00
69492;DHT22;56692;52.016;4.356;2023-03-30T15:58:43;19.00;57.80
69492;DHT22;56692;52.016;4.356;2023-03-30T16:01:11;19.10;58.20
69492;DHT22;56692;52.016;4.356;2023-03-30T16:03:52;19.00;57.90
69492;DHT22;56692;52.016;4.356;2023-03-30T16:06:19;19.10;58.00
69492;DHT22;56692;52.016;4.356;2023-03-30T16:08:45;19.10;57.90
69492;DHT22;56692;52.016;4.356;2023-03-30T16:11:12;19.20;57.80
69492;DHT22;56692;52.016;4.356;2023-03-30T16:13:49;19.40;57.50
69492;DHT22;56692;52.016;4.356;2023-03-30T16:16:16;19.60;57.20
69492;DHT22;56692;52.016;4.356;2023-03-30T16:18:43;19.60;57.00
69492;DHT22;56692;52.016;4.356;2023-03-30T16:21:09;19.50;57.30
69492;DHT22;56692;52.016;4.356;2023-03-30T16:23:36;19.40;57.30
69492;DHT22;56692;52.016;4.356;2023-03-30T16:26:03;19.30;57.60
69492;DHT22;56692;52.016;4.356;2023-03-30T16:28:28;19.30;57.70
69492;DHT22;56692;52.016;4.356;2023-03-30T16:30:57;19.20;57.70
69492;DHT22;56692;52.016;4.356;2023-03-30T16:33:25;19.20;57.80
69492;DHT22;56692;52.016;4.356;2023-03-30T16:35:51;19.20;57.80
69492;DHT22;56692;52.016;4.356;2023-03-30T16:38:17;19.20;58.10
69492;DHT22;56692;52.016;4.356;2023-03-30T16:40:46;19.20;58.10
69492;DHT22;56692;52.016;4.356;2023-03-30T16:43:13;19.10;58.20
69492;DHT22;56692;52.016;4.356;2023-03-30T16:45:39;19.10;58.30
69492;DHT22;56692;52.016;4.356;2023-03-30T16:48:05;19.10;58.40
69492;DHT22;56692;52.016;4.356;2023-03-30T16:50:40;19.10;58.40
69492;DHT22;56692;52.016;4.356;2023-03-30T16:53:08;19.10;58.30
69492;DHT22;56692;52.016;4.356;2023-03-30T16:55:34;19.10;58.50
69492;DHT22;56692;52.016;4.356;2023-03-30T16:58:01;19.10;58.40
69492;DHT22;56692;52.016;4.356;2023-03-30T17:00:36;19.10;58.20
69492;DHT22;56692;52.016;4.356;2023-03-30T17:03:02;19.30;58.10
69492;DHT22;56692;52.016;4.356;2023-03-30T17:05:29;19.50;58.00
69492;DHT22;56692;52.016;4.356;2023-03-30T17:08:02;19.60;57.80
69492;DHT22;56692;52.016;4.356;2023-03-30T17:10:33;19.60;57.70
69492;DHT22;56692;52.016;4.356;2023-03-30T17:13:00;19.70;57.50
69492;DHT22;56692;52.016;4.356;2023-03-30T17:15:27;19.70;57.40
69492;DHT22;56692;52.016;4.356;2023-03-30T17:17:53;19.80;57.30
69492;DHT22;56692;52.016;4.356;2023-03-30T17:20:29;19.90;57.10
69492;DHT22;56692;52.016;4.356;2023-03-30T17:22:57;19.90;57.00
69492;DHT22;56692;52.016;4.356;2023-03-30T17:25:23;19.90;56.80
69492;DHT22;56692;52.016;4.356;2023-03-30T17:27:51;20.00;56.80
69492;DHT22;56692;52.016;4.356;2023-03-30T17:30:29;20.00;56.90
69492;DHT22;56692;52.016;4.356;2023-03-30T17:32:55;19.90;56.80
69492;DHT22;56692;52.016;4.356;2023-03-30T17:35:24;19.90;57.00
69492;DHT22;56692;52.016;4.356;2023-03-30T17:37:50;19.90;56.80
69492;DHT22;56692;52.016;4.356;2023-03-30T17:40:19;19.80;56.20
69492;DHT22;56692;52.016;4.356;2023-03-30T17:42:46;19.60;56.60
69492;DHT22;56692;52.016;4.356;2023-03-30T17:45:13;19.50;56.70
69492;DHT22;56692;52.016;4.356;2023-03-30T17:47:40;19.50;57.20
69492;DHT22;56692;52.016;4.356;2023-03-30T17:50:35;19.40;57.40
69492;DHT22;56692;52.016;4.356;2023-03-30T17:53:05;19.40;57.50
69492;DHT22;56692;52.016;4.356;2023-03-30T17:55:32;19.40;57.60
69492;DHT22;56692;52.016;4.356;2023-03-30T17:57:58;19.40;57.50
69492;DHT22;56692;52.016;4.356;2023-03-30T18:00:27;19.40;58.00
69492;DHT22;56692;52.016;4.356;2023-03-30T18:02:54;19.30;57.90
69492;DHT22;56692;52.016;4.356;2023-03-30T18:05:23;19.30;58.10
69492;DHT22;56692;52.016;4.356;2023-03-30T18:07:50;19.30;58.20
69492;DHT22;56692;52.016;4.356;2023-03-30T18:10:22;19.30;58.30
69492;DHT22;56692;52.016;4.356;2023-03-30T18:12:49;19.30;58.30
69492;DHT22;56692;52.016;4.356;2023-03-30T18:15:16;19.30;58.40
69492;DHT22;56692;52.016;4.356;2023-03-30T18:17:42;19.20;58.30